createdAt,value
2023-04-26T00:01:55.130Z,97913.94
2023-04-26T00:04:21.842Z,97930.75
2023-04-26T00:06:49.389Z,97931.72
2023-04-26T00:09:16.393Z,97924.25
2023-04-26T00:14:09.415Z,97927.88
2023-04-26T00:16:36.086Z,97928.13
2023-04-26T00:19:02.866Z,97925.03
2023-04-26T00:21:29.373Z,97930.91
2023-04-26T00:23:55.942Z,97916.38
2023-04-26T00:26:22.693Z,97917.56
2023-04-26T00:28:49.284Z,97916.59
2023-04-26T00:31:16.662Z,97914.41
2023-04-26T00:33:44.209Z,97928.91
2023-04-26T00:36:10.979Z,97934.00
2023-04-26T00:38:37.420Z,97926.41
2023-04-26T00:41:03.910Z,97933.69
2023-04-26T00:43:30.467Z,97916.41
2023-04-26T00:45:57.110Z,97917.16
2023-04-26T00:48:23.712Z,97921.41
2023-04-26T00:50:50.491Z,97908.34
2023-04-26T00:53:17.883Z,97914.13
2023-04-26T00:55:44.920Z,97914.91
2023-04-26T00:58:11.407Z,97912.38
2023-04-26T01:00:37.966Z,97913.16
2023-04-26T01:03:04.884Z,97903.66
2023-04-26T01:05:31.522Z,97909.94
2023-04-26T01:07:59.830Z,97908.88
2023-04-26T01:10:27.572Z,97911.06
2023-04-26T01:12:54.874Z,97900.81
2023-04-26T01:15:27.872Z,97904.41
2023-04-26T01:17:54.756Z,97910.84
2023-04-26T01:20:24.296Z,97915.75
2023-04-26T01:22:53.325Z,97907.38
2023-04-26T01:25:22.397Z,97910.84
2023-04-26T01:27:48.870Z,97898.03
2023-04-26T01:30:15.344Z,97888.03
2023-04-26T01:32:41.802Z,97885.19
2023-04-26T01:35:08.708Z,97883.03
2023-04-26T01:37:35.316Z,97874.97
2023-04-26T01:40:01.791Z,97888.75
2023-04-26T01:42:28.280Z,97886.94
2023-04-26T01:44:54.783Z,97882.94
2023-04-26T01:47:21.674Z,97872.75
2023-04-26T01:49:48.375Z,97875.38
2023-04-26T01:52:14.853Z,97877.88
2023-04-26T01:54:41.281Z,97866.13
2023-04-26T01:57:07.731Z,97873.16
2023-04-26T01:59:34.231Z,97865.69
2023-04-26T02:02:00.931Z,97862.00
2023-04-26T02:04:28.269Z,97868.25
2023-04-26T02:06:54.728Z,97867.03
2023-04-26T02:09:21.171Z,97871.63
2023-04-26T02:11:47.598Z,97854.25
2023-04-26T02:14:14.148Z,97862.66
2023-04-26T02:16:40.804Z,97858.41
2023-04-26T02:19:10.942Z,97861.34
2023-04-26T02:21:58.126Z,97859.22
2023-04-26T02:24:26.121Z,97847.03
2023-04-26T02:26:57.439Z,97857.44
2023-04-26T02:29:42.264Z,97861.22
2023-04-26T02:32:09.949Z,97854.91
2023-04-26T02:34:36.580Z,97851.88
2023-04-26T02:37:03.083Z,97852.03
2023-04-26T02:39:29.698Z,97864.91
2023-04-26T02:41:56.267Z,97869.19
2023-04-26T02:44:22.764Z,97864.09
2023-04-26T02:46:49.413Z,97864.97
2023-04-26T02:49:16.563Z,97876.78
2023-04-26T02:51:43.077Z,97871.06
2023-04-26T02:54:09.544Z,97876.25
2023-04-26T02:56:35.979Z,97860.75
2023-04-26T02:59:02.475Z,97868.59
2023-04-26T03:01:28.980Z,97862.19
2023-04-26T03:03:55.867Z,97876.75
2023-04-26T03:06:22.351Z,97864.22
2023-04-26T03:08:48.784Z,97886.75
2023-04-26T03:11:15.271Z,97873.94
2023-04-26T03:13:41.814Z,97878.53
2023-04-26T03:16:08.420Z,97870.94
2023-04-26T03:18:34.873Z,97872.22
2023-04-26T03:21:01.378Z,97878.00
2023-04-26T03:23:28.730Z,97872.03
2023-04-26T03:25:55.298Z,97870.31
2023-04-26T03:28:21.742Z,97869.50
2023-04-26T03:30:50.014Z,97873.56
2023-04-26T03:33:16.877Z,97855.78
2023-04-26T03:35:43.840Z,97866.53
2023-04-26T03:38:10.330Z,97865.63
2023-04-26T03:40:36.811Z,97837.38
2023-04-26T03:43:03.380Z,97852.97
2023-04-26T03:45:29.893Z,97853.69
2023-04-26T03:47:56.814Z,97860.00
2023-04-26T03:50:23.602Z,97854.72
2023-04-26T03:52:50.115Z,97846.19
2023-04-26T03:55:16.972Z,97859.88
2023-04-26T03:57:43.382Z,97864.84
2023-04-26T04:00:11.924Z,97864.72
2023-04-26T04:02:38.431Z,97854.72
2023-04-26T04:05:05.342Z,97851.88
2023-04-26T04:07:32.924Z,97861.09
2023-04-26T04:10:02.633Z,97858.59
2023-04-26T04:12:29.167Z,97849.38
2023-04-26T04:14:55.631Z,97863.31
2023-04-26T04:17:22.182Z,97856.59
2023-04-26T04:19:48.685Z,97858.09
2023-04-26T04:22:15.395Z,97859.97
2023-04-26T04:24:44.175Z,97855.53
2023-04-26T04:27:11.533Z,97860.16
2023-04-26T04:29:38.184Z,97850.41
2023-04-26T04:32:05.141Z,97847.41
2023-04-26T04:34:36.018Z,97849.59
2023-04-26T04:37:02.758Z,97862.16
2023-04-26T04:39:29.254Z,97851.13
2023-04-26T04:41:55.777Z,97844.97
2023-04-26T04:44:24.040Z,97857.19
2023-04-26T04:46:50.562Z,97857.97
2023-04-26T04:49:18.954Z,97853.53
2023-04-26T04:51:45.621Z,97846.91
2023-04-26T04:54:12.037Z,97855.38
2023-04-26T04:56:38.768Z,97848.38
2023-04-26T04:59:05.346Z,97845.09
2023-04-26T05:01:38.743Z,97847.44
2023-04-26T05:04:06.896Z,97838.31
2023-04-26T05:06:33.650Z,97845.91
2023-04-26T05:09:02.936Z,97840.66
2023-04-26T05:11:29.362Z,97852.84
2023-04-26T05:13:56.080Z,97857.09
2023-04-26T05:16:22.857Z,97878.53
2023-04-26T05:18:49.541Z,97867.22
2023-04-26T05:21:16.405Z,97872.50
2023-04-26T05:23:43.205Z,97872.22
2023-04-26T05:26:15.335Z,97882.31
2023-04-26T05:28:42.172Z,97883.78
2023-04-26T05:31:11.409Z,97874.72
2023-04-26T05:33:38.461Z,97852.72
2023-04-26T05:36:05.377Z,97877.53
2023-04-26T05:38:37.122Z,97869.66
2023-04-26T05:41:03.956Z,97888.00
2023-04-26T05:43:32.704Z,97901.22
2023-04-26T05:45:59.299Z,97902.41
2023-04-26T05:48:26.238Z,97911.03
2023-04-26T05:50:52.869Z,97901.19
2023-04-26T05:53:19.794Z,97893.63
2023-04-26T05:55:46.664Z,97907.53
2023-04-26T05:58:13.198Z,97894.13
2023-04-26T06:00:39.946Z,97904.88
2023-04-26T06:03:06.634Z,97898.59
2023-04-26T06:05:33.416Z,97886.72
2023-04-26T06:07:59.991Z,97903.56
2023-04-26T06:10:26.603Z,97891.50
2023-04-26T06:12:53.301Z,97901.25
2023-04-26T06:15:19.846Z,97897.63
2023-04-26T06:17:46.519Z,97900.44
2023-04-26T06:20:13.045Z,97896.63
2023-04-26T06:22:39.560Z,97908.84
2023-04-26T06:25:07.304Z,97900.59
2023-04-26T06:27:33.879Z,97899.75
2023-04-26T06:30:02.909Z,97896.63
2023-04-26T06:32:29.496Z,97906.84
2023-04-26T06:34:56.140Z,97877.19
2023-04-26T06:37:22.700Z,97895.66
2023-04-26T06:39:49.249Z,97891.78
2023-04-26T06:42:15.814Z,97891.47
2023-04-26T06:44:42.301Z,97889.06
2023-04-26T06:47:09.543Z,97894.66
2023-04-26T06:49:36.366Z,97903.78
2023-04-26T06:52:08.260Z,97907.63
2023-04-26T06:54:39.886Z,97904.13
2023-04-26T06:57:09.366Z,97917.78
2023-04-26T06:59:35.904Z,97899.25
2023-04-26T07:02:05.460Z,97910.59
2023-04-26T07:04:35.428Z,97908.47
2023-04-26T07:07:05.318Z,97904.44
2023-04-26T07:09:34.727Z,97908.78
2023-04-26T07:12:03.061Z,97902.25
2023-04-26T07:14:29.527Z,97902.00
2023-04-26T07:16:55.952Z,97906.38
2023-04-26T07:19:23.316Z,97906.59
2023-04-26T07:21:49.797Z,97892.47
2023-04-26T07:24:16.410Z,97901.09
2023-04-26T07:26:42.953Z,97894.03
2023-04-26T07:29:09.455Z,97892.78
2023-04-26T07:31:35.953Z,97888.25
2023-04-26T07:34:03.310Z,97899.41
2023-04-26T07:36:29.808Z,97886.56
2023-04-26T07:38:56.329Z,97899.19
2023-04-26T07:41:23.045Z,97888.16
2023-04-26T07:43:49.978Z,97902.13
2023-04-26T07:46:16.786Z,97898.16
2023-04-26T07:48:43.328Z,97903.72
2023-04-26T07:51:13.616Z,97897.59
2023-04-26T07:53:41.105Z,97895.44
2023-04-26T07:56:08.418Z,97891.25
2023-04-26T07:58:36.136Z,97878.88
2023-04-26T08:01:06.045Z,97879.06
2023-04-26T08:03:36.528Z,97876.97
2023-04-26T08:06:06.724Z,97853.84
2023-04-26T08:08:45.570Z,97872.34
2023-04-26T08:11:12.154Z,97861.63
2023-04-26T08:13:38.710Z,97863.09
2023-04-26T08:16:06.124Z,97857.75
2023-04-26T08:18:35.462Z,97858.44
2023-04-26T08:21:05.573Z,97862.59
2023-04-26T08:23:36.567Z,97853.28
2023-04-26T08:26:04.105Z,97855.81
2023-04-26T08:28:33.339Z,97848.19
2023-04-26T08:30:59.847Z,97841.84
2023-04-26T08:33:26.585Z,97847.38
2023-04-26T08:35:53.425Z,97852.19
2023-04-26T08:38:22.437Z,97851.53
2023-04-26T08:40:49.159Z,97850.16
2023-04-26T08:43:19.215Z,97838.84
2023-04-26T08:45:49.378Z,97822.31
2023-04-26T08:48:18.213Z,97834.56
2023-04-26T08:50:46.658Z,97836.19
2023-04-26T08:53:20.300Z,97835.91
2023-04-26T08:55:50.084Z,97831.63
2023-04-26T08:58:19.849Z,97824.78
2023-04-26T09:00:46.840Z,97820.03
2023-04-26T09:03:13.704Z,97823.78
2023-04-26T09:05:44.240Z,97814.53
2023-04-26T09:08:16.149Z,97807.69
2023-04-26T09:10:42.760Z,97809.06
2023-04-26T09:13:09.413Z,97805.69
2023-04-26T09:15:35.978Z,97816.69
2023-04-26T09:18:22.163Z,97811.25
2023-04-26T09:21:09.137Z,97811.63
2023-04-26T09:23:36.007Z,97809.75
2023-04-26T09:26:18.112Z,97804.88
2023-04-26T09:28:46.474Z,97795.31
2023-04-26T09:31:36.261Z,97801.09
2023-04-26T09:34:06.600Z,97798.53
2023-04-26T09:36:52.762Z,97802.81
2023-04-26T09:39:40.531Z,97796.91
2023-04-26T09:42:11.241Z,97802.03
2023-04-26T09:44:38.227Z,97787.78
2023-04-26T09:47:07.250Z,97792.88
2023-04-26T09:49:48.840Z,97788.34
2023-04-26T09:52:16.394Z,97783.09
2023-04-26T09:54:51.755Z,97782.06
2023-04-26T09:57:19.700Z,97772.63
2023-04-26T09:59:48.588Z,97778.81
2023-04-26T10:02:22.468Z,97776.31
2023-04-26T10:04:54.889Z,97776.94
2023-04-26T10:07:23.809Z,97783.75
2023-04-26T10:09:51.219Z,97784.81
2023-04-26T10:12:19.466Z,97785.63
2023-04-26T10:14:47.176Z,97769.03
2023-04-26T10:17:14.303Z,97768.00
2023-04-26T10:19:46.422Z,97774.25
2023-04-26T10:22:25.415Z,97770.94
2023-04-26T10:24:54.138Z,97784.41
2023-04-26T10:27:45.444Z,97791.09
2023-04-26T10:30:14.048Z,97793.53
2023-04-26T10:33:06.840Z,97796.59
2023-04-26T10:35:38.102Z,97777.44
2023-04-26T10:38:07.338Z,97781.81
2023-04-26T10:40:40.869Z,97757.63
2023-04-26T10:43:16.288Z,97775.22
2023-04-26T10:45:44.525Z,97764.97
2023-04-26T10:48:35.413Z,97757.47
2023-04-26T10:51:09.119Z,97766.03
2023-04-26T10:53:35.527Z,97762.53
2023-04-26T10:56:05.243Z,97747.41
2023-04-26T10:58:35.440Z,97740.28
2023-04-26T11:01:04.880Z,97738.22
2023-04-26T11:03:32.464Z,97729.31
2023-04-26T11:05:59.038Z,97724.06
2023-04-26T11:08:33.403Z,97733.31
2023-04-26T11:11:12.564Z,97726.31
2023-04-26T11:13:43.850Z,97728.22
2023-04-26T11:16:17.505Z,97731.00
2023-04-26T11:18:46.980Z,97729.16
2023-04-26T11:21:17.655Z,97723.50
2023-04-26T11:23:53.342Z,97720.22
2023-04-26T11:26:19.831Z,97706.00
2023-04-26T11:28:46.540Z,97708.63
2023-04-26T11:31:14.500Z,97714.00
2023-04-26T11:33:41.587Z,97718.63
2023-04-26T11:36:08.342Z,97714.22
2023-04-26T11:38:34.816Z,97707.88
2023-04-26T11:41:03.591Z,97703.31
2023-04-26T11:43:37.564Z,97710.63
2023-04-26T11:46:05.829Z,97714.44
2023-04-26T11:48:37.414Z,97709.22
2023-04-26T11:51:05.480Z,97697.91
2023-04-26T11:53:42.627Z,97699.41
2023-04-26T11:56:16.297Z,97698.84
2023-04-26T11:58:51.623Z,97697.19
2023-04-26T12:01:28.454Z,97690.41
2023-04-26T12:03:59.713Z,97698.16
2023-04-26T12:06:32.896Z,97688.88
2023-04-26T12:09:05.547Z,97679.09
2023-04-26T12:11:35.121Z,97682.03
2023-04-26T12:14:05.338Z,97682.03
2023-04-26T12:16:32.019Z,97686.38
2023-04-26T12:18:58.520Z,97685.75
2023-04-26T12:21:27.448Z,97692.84
2023-04-26T12:23:55.542Z,97693.81
2023-04-26T12:26:22.025Z,97694.66
2023-04-26T12:28:48.598Z,97699.78
2023-04-26T12:31:15.157Z,97690.34
2023-04-26T12:33:41.765Z,97696.63
2023-04-26T12:36:12.374Z,97692.63
2023-04-26T12:38:39.690Z,97700.06
2023-04-26T12:41:06.285Z,97697.75
2023-04-26T12:43:35.123Z,97697.69
2023-04-26T12:46:01.692Z,97675.41
2023-04-26T12:48:28.955Z,97676.19
2023-04-26T12:50:55.907Z,97676.22
2023-04-26T12:53:22.574Z,97673.59
2023-04-26T12:55:49.142Z,97681.44
2023-04-26T12:58:15.844Z,97678.44
2023-04-26T13:00:44.455Z,97667.06
2023-04-26T13:03:14.436Z,97668.72
2023-04-26T13:05:41.509Z,97676.84
2023-04-26T13:08:07.984Z,97672.09
2023-04-26T13:10:37.708Z,97669.16
2023-04-26T13:13:07.040Z,97663.38
2023-04-26T13:15:35.504Z,97656.16
2023-04-26T13:18:02.061Z,97656.50
2023-04-26T13:20:30.785Z,97674.19
2023-04-26T13:22:57.504Z,97673.31
2023-04-26T13:25:23.979Z,97662.66
2023-04-26T13:27:53.598Z,97657.72
2023-04-26T13:30:20.409Z,97674.97
2023-04-26T13:32:47.289Z,97671.69
2023-04-26T13:35:14.075Z,97673.00
2023-04-26T13:37:41.643Z,97666.13
2023-04-26T13:40:11.237Z,97669.28
2023-04-26T13:42:38.744Z,97661.63
2023-04-26T13:45:14.471Z,97664.09
2023-04-26T13:47:41.377Z,97678.88
2023-04-26T13:50:08.180Z,97669.28
2023-04-26T13:52:37.514Z,97678.91
2023-04-26T13:55:07.941Z,97680.34
2023-04-26T13:57:37.352Z,97681.31
2023-04-26T14:00:08.114Z,97674.22
2023-04-26T14:02:37.636Z,97679.84
2023-04-26T14:05:05.809Z,97675.91
2023-04-26T14:07:35.789Z,97669.75
2023-04-26T14:10:04.695Z,97666.78
2023-04-26T14:12:31.255Z,97677.66
2023-04-26T14:14:57.828Z,97678.75
2023-04-26T14:17:25.724Z,97676.84
2023-04-26T14:19:54.112Z,97679.25
2023-04-26T14:22:21.354Z,97672.09
2023-04-26T14:24:47.955Z,97680.84
2023-04-26T14:27:14.486Z,97672.16
2023-04-26T14:29:41.047Z,97665.34
2023-04-26T14:32:07.929Z,97680.19
2023-04-26T14:34:39.218Z,97673.69
2023-04-26T14:37:06.753Z,97676.47
2023-04-26T14:39:37.526Z,97677.00
2023-04-26T14:42:07.252Z,97667.75
2023-04-26T14:44:39.980Z,97671.91
2023-04-26T14:47:06.767Z,97664.81
2023-04-26T14:49:35.543Z,97664.44
2023-04-26T14:52:02.052Z,97650.28
2023-04-26T14:54:28.547Z,97660.06
2023-04-26T14:56:55.180Z,97672.56
2023-04-26T14:59:21.803Z,97669.38
2023-04-26T15:01:49.003Z,97665.75
2023-04-26T15:04:15.762Z,97680.38
2023-04-26T15:06:42.468Z,97665.47
2023-04-26T15:09:09.245Z,97668.69
2023-04-26T15:11:36.046Z,97671.41
2023-04-26T15:14:04.618Z,97666.53
2023-04-26T15:16:31.302Z,97673.59
2023-04-26T15:18:57.768Z,97667.06
2023-04-26T15:21:24.379Z,97673.59
2023-04-26T15:23:51.529Z,97666.00
2023-04-26T15:26:17.957Z,97666.78
2023-04-26T15:28:44.544Z,97676.44
2023-04-26T15:31:11.450Z,97682.97
2023-04-26T15:33:38.036Z,97665.31
2023-04-26T15:36:07.778Z,97672.75
2023-04-26T15:38:36.128Z,97672.47
2023-04-26T15:41:03.628Z,97675.38
2023-04-26T15:43:30.325Z,97682.44
2023-04-26T15:45:57.213Z,97677.25
2023-04-26T15:48:23.771Z,97686.47
2023-04-26T15:50:53.681Z,97683.53
2023-04-26T15:53:21.834Z,97683.06
2023-04-26T15:55:48.282Z,97682.47
2023-04-26T15:58:14.811Z,97687.13
2023-04-26T16:00:41.342Z,97694.50
2023-04-26T16:03:07.991Z,97681.06
2023-04-26T16:05:35.792Z,97686.22
2023-04-26T16:08:06.108Z,97685.69
2023-04-26T16:10:36.282Z,97692.50
2023-04-26T16:13:07.082Z,97671.59
2023-04-26T16:15:36.984Z,97689.50
2023-04-26T16:18:06.118Z,97692.63
2023-04-26T16:20:35.791Z,97701.84
2023-04-26T16:23:02.287Z,97694.81
2023-04-26T16:25:28.793Z,97698.00
2023-04-26T16:27:55.306Z,97703.69
2023-04-26T16:30:22.183Z,97690.06
2023-04-26T16:32:48.632Z,97704.22
2023-04-26T16:35:15.258Z,97702.34
2023-04-26T16:37:41.810Z,97714.81
2023-04-26T16:40:10.646Z,97702.53
2023-04-26T16:42:37.182Z,97710.19
2023-04-26T16:45:07.814Z,97697.69
2023-04-26T16:47:37.056Z,97704.00
2023-04-26T16:50:08.060Z,97710.00
2023-04-26T16:52:37.668Z,97718.69
2023-04-26T16:55:07.370Z,97721.25
2023-04-26T16:57:36.562Z,97708.75
2023-04-26T17:00:05.479Z,97725.25
2023-04-26T17:02:32.081Z,97730.75
2023-04-26T17:04:58.871Z,97724.19
2023-04-26T17:07:25.411Z,97735.88
2023-04-26T17:09:55.341Z,97739.56
2023-04-26T17:12:22.283Z,97740.72
2023-04-26T17:14:48.718Z,97732.38
2023-04-26T17:17:15.237Z,97740.47
2023-04-26T17:19:41.925Z,97737.41
2023-04-26T17:22:12.623Z,97682.78
2023-04-26T17:24:39.128Z,97742.19
2023-04-26T17:27:08.184Z,97747.81
2023-04-26T17:29:35.878Z,97746.47
2023-04-26T17:32:04.317Z,97745.72
2023-04-26T17:34:30.853Z,97751.91
2023-04-26T17:36:57.389Z,97742.72
2023-04-26T17:39:23.857Z,97756.34
2023-04-26T17:41:51.342Z,97752.53
2023-04-26T17:44:18.198Z,97756.94
2023-04-26T17:46:44.662Z,97770.59
2023-04-26T17:49:11.838Z,97776.44
2023-04-26T17:51:38.418Z,97719.44
2023-04-26T17:54:08.418Z,97752.63
2023-04-26T17:56:37.838Z,97766.97
2023-04-26T17:59:07.677Z,97776.31
2023-04-26T18:01:37.700Z,97771.91
2023-04-26T18:04:07.845Z,97778.31
2023-04-26T18:06:38.072Z,97776.59
2023-04-26T18:09:08.842Z,97775.91
2023-04-26T18:11:35.489Z,97776.88
2023-04-26T18:14:01.904Z,97785.13
2023-04-26T18:16:28.908Z,97782.25
2023-04-26T18:18:55.439Z,97783.09
2023-04-26T18:21:23.073Z,97785.69
2023-04-26T18:23:49.517Z,97782.41
2023-04-26T18:26:16.042Z,97779.28
2023-04-26T18:28:44.916Z,97763.28
2023-04-26T18:31:11.979Z,97780.63
2023-04-26T18:33:38.480Z,97785.97
2023-04-26T18:36:06.600Z,97789.38
2023-04-26T18:38:34.651Z,97785.28
2023-04-26T18:41:01.248Z,97782.97
2023-04-26T18:43:27.991Z,97784.03
2023-04-26T18:45:55.484Z,97795.81
2023-04-26T18:48:22.236Z,97797.72
2023-04-26T18:50:52.919Z,97806.38
2023-04-26T18:53:22.266Z,97800.63
2023-04-26T18:55:48.995Z,97819.97
2023-04-26T18:58:15.457Z,97821.41
2023-04-26T19:00:41.923Z,97817.53
2023-04-26T19:03:08.565Z,97809.59
2023-04-26T19:05:37.333Z,97801.34
2023-04-26T19:08:06.833Z,97804.28
2023-04-26T19:10:33.744Z,97812.72
2023-04-26T19:13:00.332Z,97817.03
2023-04-26T19:15:27.157Z,97819.09
2023-04-26T19:17:53.692Z,97813.13
2023-04-26T19:20:20.418Z,97806.34
2023-04-26T19:22:47.103Z,97811.09
2023-04-26T19:25:14.773Z,97816.28
2023-04-26T19:27:41.496Z,97817.69
2023-04-26T19:30:08.544Z,97834.97
2023-04-26T19:32:36.594Z,97827.59
2023-04-26T19:35:06.272Z,97831.50
2023-04-26T19:37:32.967Z,97839.50
2023-04-26T19:39:59.441Z,97829.66
2023-04-26T19:42:26.708Z,97836.63
2023-04-26T19:44:53.526Z,97844.84
2023-04-26T19:47:20.241Z,97859.25
2023-04-26T19:49:47.884Z,97854.34
2023-04-26T19:52:14.356Z,97855.75
2023-04-26T19:54:40.965Z,97847.75
2023-04-26T19:57:07.427Z,97858.44
2023-04-26T19:59:36.106Z,97862.34
2023-04-26T20:02:03.140Z,97863.63
2023-04-26T20:04:29.670Z,97876.78
2023-04-26T20:06:57.204Z,97856.69
2023-04-26T20:09:23.640Z,97876.81
2023-04-26T20:11:50.149Z,97873.13
2023-04-26T20:14:16.600Z,97877.22
2023-04-26T20:16:43.069Z,97872.50
2023-04-26T20:19:10.186Z,97873.13
2023-04-26T20:21:37.276Z,97879.28
2023-04-26T20:24:06.360Z,97876.44
2023-04-26T20:26:32.879Z,97870.44
2023-04-26T20:28:59.451Z,97873.34
2023-04-26T20:31:26.017Z,97869.22
2023-04-26T20:33:53.535Z,97868.19
2023-04-26T20:36:20.669Z,97869.63
2023-04-26T20:38:47.400Z,97878.25
2023-04-26T20:41:13.925Z,97881.97
2023-04-26T20:43:40.410Z,97886.84
2023-04-26T20:46:07.436Z,97888.28
2023-04-26T20:48:33.926Z,97882.50
2023-04-26T20:51:02.083Z,97882.28
2023-04-26T20:53:28.716Z,97890.47
2023-04-26T20:55:55.235Z,97896.25
2023-04-26T20:58:21.723Z,97892.38
2023-04-26T21:00:55.441Z,97885.53
2023-04-26T21:03:22.904Z,97895.59
2023-04-26T21:05:49.602Z,97879.56
2023-04-26T21:08:16.215Z,97881.63
2023-04-26T21:10:42.770Z,97891.69
2023-04-26T21:13:09.378Z,97893.75
2023-04-26T21:15:38.898Z,97890.06
2023-04-26T21:18:07.058Z,97904.81
2023-04-26T21:20:46.797Z,97889.41
2023-04-26T21:23:13.419Z,97895.38
2023-04-26T21:25:44.735Z,97900.94
2023-04-26T21:28:11.345Z,97902.53
2023-04-26T21:30:38.560Z,97894.28
2023-04-26T21:33:07.895Z,97890.81
2023-04-26T21:35:38.975Z,97905.19
2023-04-26T21:38:07.897Z,97901.25
2023-04-26T21:40:34.737Z,97907.63
2023-04-26T21:43:05.319Z,97897.88
2023-04-26T21:45:32.767Z,97906.25
2023-04-26T21:47:59.726Z,97911.94
2023-04-26T21:50:26.795Z,97909.41
2023-04-26T21:52:53.581Z,97910.66
2023-04-26T21:55:20.055Z,97906.97
2023-04-26T21:57:46.594Z,97911.28
2023-04-26T22:00:13.289Z,97906.78
2023-04-26T22:02:39.850Z,97910.09
2023-04-26T22:05:09.755Z,97912.31
2023-04-26T22:07:36.297Z,97915.44
2023-04-26T22:10:03.037Z,97917.44
2023-04-26T22:12:29.506Z,97917.72
2023-04-26T22:14:55.957Z,97919.09
2023-04-26T22:17:22.475Z,97917.28
2023-04-26T22:19:49.644Z,97894.97
2023-04-26T22:22:16.602Z,97921.66
2023-04-26T22:24:43.018Z,97920.47
2023-04-26T22:27:12.678Z,97907.00
2023-04-26T22:29:43.555Z,97902.50
2023-04-26T22:32:13.672Z,97918.56
2023-04-26T22:34:43.944Z,97907.41
2023-04-26T22:37:21.078Z,97917.44
2023-04-26T22:39:48.747Z,97918.81
2023-04-26T22:42:15.284Z,97921.66
2023-04-26T22:44:42.011Z,97919.09
2023-04-26T22:47:08.635Z,97929.47
2023-04-26T22:49:35.066Z,97936.50
2023-04-26T22:52:07.662Z,97934.78
2023-04-26T22:54:42.371Z,97936.56
2023-04-26T22:57:08.889Z,97948.88
2023-04-26T22:59:35.399Z,97946.44
2023-04-26T23:02:02.098Z,97948.56
2023-04-26T23:04:28.628Z,97949.06
2023-04-26T23:06:55.153Z,97955.09
2023-04-26T23:09:21.618Z,97947.22
2023-04-26T23:11:48.290Z,97940.84
2023-04-26T23:14:15.837Z,97958.06
2023-04-26T23:16:45.868Z,97951.84
2023-04-26T23:19:14.691Z,97953.84
2023-04-26T23:21:41.848Z,97955.22
2023-04-26T23:24:08.370Z,97958.78
2023-04-26T23:26:34.864Z,97958.38
2023-04-26T23:29:01.373Z,97959.97
2023-04-26T23:31:27.880Z,97965.53
2023-04-26T23:33:54.421Z,97958.31
2023-04-26T23:36:20.941Z,97940.47
2023-04-26T23:38:47.409Z,97949.56
2023-04-26T23:41:17.128Z,97963.66
2023-04-26T23:43:46.549Z,97958.16
2023-04-26T23:46:15.579Z,97963.78
2023-04-26T23:48:42.133Z,97963.28
2023-04-26T23:51:08.598Z,97966.31
2023-04-26T23:53:35.204Z,97959.34
2023-04-26T23:56:01.735Z,97964.81
2023-04-26T23:58:28.237Z,97956.44
